X  Sluiten METAR luchtvaart weer gegevens      LGBL Nea Anchialos National Airport
Temperatuur
34°C Temperatuur
17°C Dauwpunt
36% Vochtigheid



Wind
14 MPH
23 KM/U
6 M/S
12 KTS



100°
O
Huidig weer

Helder Helder
Luchtdruk 1010.84 (hPa) - 29.85 (inHg)
Zicht 6 (mijl) - 9.7 (km)
Vliegveld
Vliegveld code LGBL

Locatie : Nea Anchialos National Airport
Afstand: 74 (mi)

Metar:
LGBL 151120Z 10012KT CAVOK 34/17 Q1011

Tijd: 15-07-2024 14:20 EEST